Hickory Point, Tennessee
Current Conditions -  °F | °C
As of 1:52 PM on Tuesday 25 Nov 2014 (Local Time) from KCKV Reporting Station
Clear Clear  
Wind Chill: 43°   Ceiling: Unl
Heat Index: 47°   Visibility: 10mi
Dew Point: 26°   Wind: 8mph
Humidity: 44%   Direction: 320°NW
Pressure: 30.13"   Gusts: NA
Location:  36.4964°N, 87.234°W
Report Text: KCKV 251952Z AUTO 32007KT 10SM CLR 08/M03 A3013 RMK AO2 SLP204 T00831033
Loading
Personal Weather Stations






























Interactive Weather Map New forecast layout! Learn more

10-Day Weather Forecast

Advertisements
Track Severe Weather on mobile